sensor_id;sensor_type;location;lat;lon;timestamp;P1;durP1;ratioP1;P2;durP2;ratioP2
10116;SDS011;5098;48.792;9.012;2022-08-02T00:01:42;4.40;;;3.80;;
10116;SDS011;5098;48.792;9.012;2022-08-02T00:04:09;4.40;;;3.67;;
10116;SDS011;5098;48.792;9.012;2022-08-02T00:06:35;4.00;;;3.37;;
10116;SDS011;5098;48.792;9.012;2022-08-02T00:09:02;4.80;;;3.90;;
10116;SDS011;5098;48.792;9.012;2022-08-02T00:11:28;5.00;;;3.37;;
10116;SDS011;5098;48.792;9.012;2022-08-02T00:13:54;4.80;;;4.37;;
10116;SDS011;5098;48.792;9.012;2022-08-02T00:16:21;4.20;;;3.90;;
10116;SDS011;5098;48.792;9.012;2022-08-02T00:18:47;5.40;;;4.17;;
10116;SDS011;5098;48.792;9.012;2022-08-02T00:21:13;4.77;;;4.23;;
10116;SDS011;5098;48.792;9.012;2022-08-02T00:23:40;8.40;;;4.80;;
10116;SDS011;5098;48.792;9.012;2022-08-02T00:26:06;4.60;;;4.20;;
10116;SDS011;5098;48.792;9.012;2022-08-02T00:28:32;4.80;;;4.10;;
10116;SDS011;5098;48.792;9.012;2022-08-02T00:30:58;4.60;;;4.20;;
10116;SDS011;5098;48.792;9.012;2022-08-02T00:33:24;4.53;;;4.13;;
10116;SDS011;5098;48.792;9.012;2022-08-02T00:35:51;5.80;;;4.57;;
10116;SDS011;5098;48.792;9.012;2022-08-02T00:38:17;4.97;;;4.57;;
10116;SDS011;5098;48.792;9.012;2022-08-02T00:40:49;4.37;;;4.00;;
10116;SDS011;5098;48.792;9.012;2022-08-02T00:43:16;4.27;;;3.97;;
10116;SDS011;5098;48.792;9.012;2022-08-02T00:45:42;5.20;;;4.70;;
10116;SDS011;5098;48.792;9.012;2022-08-02T00:48:09;5.47;;;4.30;;
10116;SDS011;5098;48.792;9.012;2022-08-02T00:50:35;4.60;;;4.20;;
10116;SDS011;5098;48.792;9.012;2022-08-02T00:53:02;5.43;;;4.77;;
10116;SDS011;5098;48.792;9.012;2022-08-02T00:55:29;5.40;;;4.90;;
10116;SDS011;5098;48.792;9.012;2022-08-02T00:57:55;4.27;;;3.93;;
10116;SDS011;5098;48.792;9.012;2022-08-02T01:00:22;4.87;;;4.30;;
10116;SDS011;5098;48.792;9.012;2022-08-02T01:02:48;4.70;;;3.60;;
10116;SDS011;5098;48.792;9.012;2022-08-02T01:05:14;4.30;;;4.00;;
10116;SDS011;5098;48.792;9.012;2022-08-02T01:07:40;5.40;;;3.90;;
10116;SDS011;5098;48.792;9.012;2022-08-02T01:10:06;4.67;;;4.27;;
10116;SDS011;5098;48.792;9.012;2022-08-02T01:12:33;5.63;;;4.40;;
10116;SDS011;5098;48.792;9.012;2022-08-02T01:15:00;6.30;;;4.10;;
10116;SDS011;5098;48.792;9.012;2022-08-02T01:17:31;4.33;;;3.93;;
10116;SDS011;5098;48.792;9.012;2022-08-02T01:22:45;4.17;;;3.77;;
10116;SDS011;5098;48.792;9.012;2022-08-02T01:25:24;4.60;;;3.43;;
10116;SDS011;5098;48.792;9.012;2022-08-02T01:30:33;4.40;;;4.00;;
10116;SDS011;5098;48.792;9.012;2022-08-02T01:33:00;4.13;;;3.27;;
10116;SDS011;5098;48.792;9.012;2022-08-02T01:35:29;3.87;;;3.27;;
10116;SDS011;5098;48.792;9.012;2022-08-02T01:38:03;4.07;;;3.67;;
10116;SDS011;5098;48.792;9.012;2022-08-02T01:40:30;3.90;;;3.23;;
10116;SDS011;5098;48.792;9.012;2022-08-02T01:42:59;5.00;;;3.80;;
10116;SDS011;5098;48.792;9.012;2022-08-02T01:45:28;5.03;;;3.13;;
10116;SDS011;5098;48.792;9.012;2022-08-02T01:47:55;5.20;;;3.40;;
10116;SDS011;5098;48.792;9.012;2022-08-02T01:50:25;5.07;;;3.83;;
10116;SDS011;5098;48.792;9.012;2022-08-02T01:52:53;3.70;;;3.17;;
10116;SDS011;5098;48.792;9.012;2022-08-02T01:58:06;3.37;;;3.07;;
10116;SDS011;5098;48.792;9.012;2022-08-02T02:00:34;4.23;;;3.30;;
10116;SDS011;5098;48.792;9.012;2022-08-02T02:03:03;4.50;;;3.73;;
10116;SDS011;5098;48.792;9.012;2022-08-02T02:05:30;3.60;;;3.30;;
10116;SDS011;5098;48.792;9.012;2022-08-02T02:07:57;3.17;;;2.97;;
10116;SDS011;5098;48.792;9.012;2022-08-02T02:10:25;3.20;;;3.00;;
10116;SDS011;5098;48.792;9.012;2022-08-02T02:12:51;2.70;;;2.50;;
10116;SDS011;5098;48.792;9.012;2022-08-02T02:15:17;3.53;;;3.03;;
10116;SDS011;5098;48.792;9.012;2022-08-02T02:17:45;3.17;;;2.70;;
10116;SDS011;5098;48.792;9.012;2022-08-02T02:20:13;3.77;;;3.30;;
10116;SDS011;5098;48.792;9.012;2022-08-02T02:22:40;3.50;;;3.10;;
10116;SDS011;5098;48.792;9.012;2022-08-02T02:25:09;3.17;;;2.70;;
10116;SDS011;5098;48.792;9.012;2022-08-02T02:27:36;3.90;;;3.50;;
10116;SDS011;5098;48.792;9.012;2022-08-02T02:30:05;4.00;;;3.47;;
10116;SDS011;5098;48.792;9.012;2022-08-02T02:32:31;3.90;;;3.53;;
10116;SDS011;5098;48.792;9.012;2022-08-02T02:34:58;3.90;;;3.60;;
10116;SDS011;5098;48.792;9.012;2022-08-02T02:37:26;4.10;;;3.70;;
10116;SDS011;5098;48.792;9.012;2022-08-02T02:39:53;5.23;;;4.17;;
10116;SDS011;5098;48.792;9.012;2022-08-02T02:42:26;4.07;;;3.67;;
10116;SDS011;5098;48.792;9.012;2022-08-02T02:44:53;4.83;;;4.10;;
10116;SDS011;5098;48.792;9.012;2022-08-02T02:47:19;5.27;;;3.70;;
10116;SDS011;5098;48.792;9.012;2022-08-02T02:49:47;3.37;;;3.07;;
10116;SDS011;5098;48.792;9.012;2022-08-02T02:52:14;4.30;;;3.80;;
10116;SDS011;5098;48.792;9.012;2022-08-02T02:54:41;4.63;;;3.53;;
10116;SDS011;5098;48.792;9.012;2022-08-02T02:57:08;4.77;;;3.30;;
10116;SDS011;5098;48.792;9.012;2022-08-02T02:59:34;4.20;;;3.57;;
10116;SDS011;5098;48.792;9.012;2022-08-02T03:02:01;3.70;;;3.30;;
10116;SDS011;5098;48.792;9.012;2022-08-02T03:04:27;3.93;;;3.33;;
10116;SDS011;5098;48.792;9.012;2022-08-02T03:06:53;3.83;;;3.53;;
10116;SDS011;5098;48.792;9.012;2022-08-02T03:09:19;3.90;;;3.60;;
10116;SDS011;5098;48.792;9.012;2022-08-02T03:11:46;4.23;;;3.60;;
10116;SDS011;5098;48.792;9.012;2022-08-02T03:14:12;3.40;;;3.10;;
10116;SDS011;5098;48.792;9.012;2022-08-02T03:16:42;3.43;;;3.13;;
10116;SDS011;5098;48.792;9.012;2022-08-02T03:19:08;3.60;;;3.17;;
10116;SDS011;5098;48.792;9.012;2022-08-02T03:21:34;3.70;;;3.37;;
10116;SDS011;5098;48.792;9.012;2022-08-02T03:24:00;4.03;;;3.73;;
10116;SDS011;5098;48.792;9.012;2022-08-02T03:26:26;3.97;;;3.40;;
10116;SDS011;5098;48.792;9.012;2022-08-02T03:28:52;4.30;;;3.30;;
10116;SDS011;5098;48.792;9.012;2022-08-02T03:31:18;4.10;;;3.17;;
10116;SDS011;5098;48.792;9.012;2022-08-02T03:33:44;4.80;;;3.63;;
10116;SDS011;5098;48.792;9.012;2022-08-02T03:36:12;3.60;;;3.30;;
10116;SDS011;5098;48.792;9.012;2022-08-02T03:38:39;4.43;;;4.10;;
10116;SDS011;5098;48.792;9.012;2022-08-02T03:41:06;5.00;;;3.80;;
10116;SDS011;5098;48.792;9.012;2022-08-02T03:43:33;3.93;;;3.50;;
10116;SDS011;5098;48.792;9.012;2022-08-02T03:46:00;4.50;;;3.33;;
10116;SDS011;5098;48.792;9.012;2022-08-02T03:48:28;4.30;;;3.50;;
10116;SDS011;5098;48.792;9.012;2022-08-02T03:50:54;4.03;;;3.63;;
10116;SDS011;5098;48.792;9.012;2022-08-02T03:53:21;5.73;;;3.70;;
10116;SDS011;5098;48.792;9.012;2022-08-02T03:55:47;4.30;;;3.50;;
10116;SDS011;5098;48.792;9.012;2022-08-02T03:58:21;3.43;;;3.13;;
10116;SDS011;5098;48.792;9.012;2022-08-02T04:00:47;3.83;;;2.97;;
10116;SDS011;5098;48.792;9.012;2022-08-02T04:03:14;3.80;;;3.43;;
10116;SDS011;5098;48.792;9.012;2022-08-02T04:05:40;3.30;;;3.00;;
10116;SDS011;5098;48.792;9.012;2022-08-02T04:08:06;3.77;;;2.93;;
10116;SDS011;5098;48.792;9.012;2022-08-02T04:10:32;3.80;;;3.40;;
10116;SDS011;5098;48.792;9.012;2022-08-02T04:13:19;5.37;;;3.63;;
10116;SDS011;5098;48.792;9.012;2022-08-02T04:15:45;3.50;;;3.20;;
10116;SDS011;5098;48.792;9.012;2022-08-02T04:18:14;4.20;;;3.80;;
10116;SDS011;5098;48.792;9.012;2022-08-02T04:20:41;3.70;;;3.40;;
10116;SDS011;5098;48.792;9.012;2022-08-02T04:23:09;3.40;;;3.10;;
10116;SDS011;5098;48.792;9.012;2022-08-02T04:25:36;4.40;;;3.53;;
10116;SDS011;5098;48.792;9.012;2022-08-02T04:28:03;4.00;;;3.60;;
10116;SDS011;5098;48.792;9.012;2022-08-02T04:30:30;3.93;;;3.33;;
10116;SDS011;5098;48.792;9.012;2022-08-02T04:32:57;4.37;;;3.23;;
10116;SDS011;5098;48.792;9.012;2022-08-02T04:35:23;3.27;;;2.97;;
10116;SDS011;5098;48.792;9.012;2022-08-02T04:37:49;3.00;;;2.80;;
10116;SDS011;5098;48.792;9.012;2022-08-02T04:40:16;4.97;;;3.77;;
10116;SDS011;5098;48.792;9.012;2022-08-02T04:42:42;3.13;;;2.83;;
10116;SDS011;5098;48.792;9.012;2022-08-02T04:45:08;4.50;;;3.80;;
10116;SDS011;5098;48.792;9.012;2022-08-02T04:47:35;3.40;;;3.10;;
10116;SDS011;5098;48.792;9.012;2022-08-02T04:50:02;3.23;;;3.03;;
10116;SDS011;5098;48.792;9.012;2022-08-02T04:52:28;3.97;;;2.97;;
10116;SDS011;5098;48.792;9.012;2022-08-02T04:54:54;3.80;;;2.93;;
10116;SDS011;5098;48.792;9.012;2022-08-02T04:57:20;3.20;;;2.90;;
10116;SDS011;5098;48.792;9.012;2022-08-02T05:00:06;3.23;;;2.93;;
10116;SDS011;5098;48.792;9.012;2022-08-02T05:02:32;5.03;;;3.30;;
10116;SDS011;5098;48.792;9.012;2022-08-02T05:04:58;4.60;;;3.60;;
10116;SDS011;5098;48.792;9.012;2022-08-02T05:07:24;5.13;;;3.90;;
10116;SDS011;5098;48.792;9.012;2022-08-02T05:09:50;3.93;;;3.63;;
10116;SDS011;5098;48.792;9.012;2022-08-02T05:12:16;3.10;;;2.90;;
10116;SDS011;5098;48.792;9.012;2022-08-02T05:14:46;6.47;;;3.03;;
10116;SDS011;5098;48.792;9.012;2022-08-02T05:17:12;4.00;;;3.70;;
10116;SDS011;5098;48.792;9.012;2022-08-02T05:19:38;3.80;;;3.23;;
10116;SDS011;5098;48.792;9.012;2022-08-02T05:22:04;6.47;;;3.40;;
10116;SDS011;5098;48.792;9.012;2022-08-02T05:24:30;3.70;;;3.40;;
10116;SDS011;5098;48.792;9.012;2022-08-02T05:26:56;3.67;;;3.37;;
10116;SDS011;5098;48.792;9.012;2022-08-02T05:29:22;3.57;;;3.27;;
10116;SDS011;5098;48.792;9.012;2022-08-02T05:31:48;3.87;;;3.23;;
10116;SDS011;5098;48.792;9.012;2022-08-02T05:34:15;3.37;;;3.07;;
10116;SDS011;5098;48.792;9.012;2022-08-02T05:36:41;4.37;;;2.87;;
10116;SDS011;5098;48.792;9.012;2022-08-02T05:39:07;3.63;;;3.20;;
10116;SDS011;5098;48.792;9.012;2022-08-02T05:41:33;3.73;;;3.43;;
10116;SDS011;5098;48.792;9.012;2022-08-02T05:44:00;5.27;;;3.27;;
10116;SDS011;5098;48.792;9.012;2022-08-02T05:46:26;3.40;;;3.00;;
10116;SDS011;5098;48.792;9.012;2022-08-02T05:48:52;5.13;;;3.30;;
10116;SDS011;5098;48.792;9.012;2022-08-02T05:51:21;3.80;;;3.00;;
10116;SDS011;5098;48.792;9.012;2022-08-02T06:01:34;3.77;;;2.80;;
10116;SDS011;5098;48.792;9.012;2022-08-02T06:04:01;3.67;;;3.07;;
10116;SDS011;5098;48.792;9.012;2022-08-02T06:06:29;4.70;;;3.00;;
10116;SDS011;5098;48.792;9.012;2022-08-02T06:09:06;4.57;;;3.07;;
10116;SDS011;5098;48.792;9.012;2022-08-02T06:11:35;6.17;;;2.93;;
10116;SDS011;5098;48.792;9.012;2022-08-02T06:14:02;3.17;;;2.70;;
10116;SDS011;5098;48.792;9.012;2022-08-02T06:16:28;4.20;;;2.83;;
10116;SDS011;5098;48.792;9.012;2022-08-02T06:18:55;3.60;;;3.27;;
10116;SDS011;5098;48.792;9.012;2022-08-02T06:21:22;5.07;;;3.17;;
10116;SDS011;5098;48.792;9.012;2022-08-02T06:23:49;5.37;;;3.53;;
10116;SDS011;5098;48.792;9.012;2022-08-02T06:26:16;4.00;;;3.30;;
10116;SDS011;5098;48.792;9.012;2022-08-02T06:28:44;3.90;;;3.10;;
10116;SDS011;5098;48.792;9.012;2022-08-02T06:31:11;4.80;;;3.30;;
10116;SDS011;5098;48.792;9.012;2022-08-02T06:33:38;3.33;;;2.87;;
10116;SDS011;5098;48.792;9.012;2022-08-02T06:36:09;3.70;;;2.90;;
10116;SDS011;5098;48.792;9.012;2022-08-02T06:38:40;3.30;;;3.00;;
10116;SDS011;5098;48.792;9.012;2022-08-02T06:41:08;8.20;;;3.20;;
10116;SDS011;5098;48.792;9.012;2022-08-02T06:46:34;6.53;;;3.00;;
10116;SDS011;5098;48.792;9.012;2022-08-02T06:49:00;3.37;;;3.07;;
10116;SDS011;5098;48.792;9.012;2022-08-02T06:51:27;10.33;;;3.67;;
10116;SDS011;5098;48.792;9.012;2022-08-02T06:53:53;3.90;;;3.60;;
10116;SDS011;5098;48.792;9.012;2022-08-02T06:56:20;5.37;;;4.63;;
10116;SDS011;5098;48.792;9.012;2022-08-02T06:58:46;4.10;;;3.70;;
10116;SDS011;5098;48.792;9.012;2022-08-02T07:01:12;5.40;;;3.57;;
10116;SDS011;5098;48.792;9.012;2022-08-02T07:03:38;5.17;;;3.50;;
10116;SDS011;5098;48.792;9.012;2022-08-02T07:06:05;3.27;;;2.97;;
10116;SDS011;5098;48.792;9.012;2022-08-02T07:08:35;3.40;;;2.90;;
10116;SDS011;5098;48.792;9.012;2022-08-02T07:11:05;3.87;;;2.90;;
10116;SDS011;5098;48.792;9.012;2022-08-02T07:13:32;3.97;;;3.60;;
10116;SDS011;5098;48.792;9.012;2022-08-02T07:15:58;5.70;;;3.80;;
10116;SDS011;5098;48.792;9.012;2022-08-02T07:18:24;4.40;;;3.97;;
10116;SDS011;5098;48.792;9.012;2022-08-02T07:20:50;4.37;;;3.93;;
10116;SDS011;5098;48.792;9.012;2022-08-02T07:23:16;8.73;;;6.23;;
10116;SDS011;5098;48.792;9.012;2022-08-02T07:25:43;5.63;;;4.50;;
10116;SDS011;5098;48.792;9.012;2022-08-02T07:28:09;8.57;;;5.43;;
10116;SDS011;5098;48.792;9.012;2022-08-02T07:30:36;16.00;;;12.70;;
10116;SDS011;5098;48.792;9.012;2022-08-02T07:33:02;22.50;;;15.50;;
10116;SDS011;5098;48.792;9.012;2022-08-02T07:35:28;17.47;;;13.10;;
10116;SDS011;5098;48.792;9.012;2022-08-02T07:37:55;6.23;;;5.43;;
10116;SDS011;5098;48.792;9.012;2022-08-02T07:40:21;4.13;;;3.83;;
10116;SDS011;5098;48.792;9.012;2022-08-02T07:42:48;3.93;;;3.57;;
10116;SDS011;5098;48.792;9.012;2022-08-02T07:45:16;4.60;;;3.70;;
10116;SDS011;5098;48.792;9.012;2022-08-02T07:47:42;6.00;;;4.33;;
10116;SDS011;5098;48.792;9.012;2022-08-02T07:50:09;4.23;;;3.83;;
10116;SDS011;5098;48.792;9.012;2022-08-02T07:52:36;4.90;;;4.40;;
10116;SDS011;5098;48.792;9.012;2022-08-02T07:55:02;3.83;;;3.53;;
10116;SDS011;5098;48.792;9.012;2022-08-02T07:57:29;4.60;;;4.20;;
10116;SDS011;5098;48.792;9.012;2022-08-02T07:59:55;3.93;;;3.50;;
10116;SDS011;5098;48.792;9.012;2022-08-02T08:02:21;5.30;;;3.80;;
10116;SDS011;5098;48.792;9.012;2022-08-02T08:04:50;5.70;;;3.40;;
10116;SDS011;5098;48.792;9.012;2022-08-02T08:07:17;4.20;;;3.73;;
10116;SDS011;5098;48.792;9.012;2022-08-02T08:09:43;4.83;;;3.07;;
10116;SDS011;5098;48.792;9.012;2022-08-02T08:12:11;7.50;;;3.50;;
10116;SDS011;5098;48.792;9.012;2022-08-02T08:14:37;4.20;;;3.77;;
10116;SDS011;5098;48.792;9.012;2022-08-02T08:17:04;5.70;;;5.20;;
10116;SDS011;5098;48.792;9.012;2022-08-02T08:19:30;5.70;;;3.83;;
10116;SDS011;5098;48.792;9.012;2022-08-02T08:21:57;3.60;;;3.30;;
10116;SDS011;5098;48.792;9.012;2022-08-02T08:24:27;3.30;;;3.03;;
10116;SDS011;5098;48.792;9.012;2022-08-02T08:26:53;3.93;;;3.20;;
10116;SDS011;5098;48.792;9.012;2022-08-02T08:29:20;4.03;;;3.60;;
10116;SDS011;5098;48.792;9.012;2022-08-02T08:31:46;7.87;;;4.20;;
10116;SDS011;5098;48.792;9.012;2022-08-02T08:34:12;11.47;;;3.60;;
10116;SDS011;5098;48.792;9.012;2022-08-02T08:36:39;5.57;;;3.93;;
10116;SDS011;5098;48.792;9.012;2022-08-02T08:39:05;4.10;;;3.80;;
10116;SDS011;5098;48.792;9.012;2022-08-02T08:41:31;4.90;;;3.17;;
10116;SDS011;5098;48.792;9.012;2022-08-02T08:43:57;5.50;;;3.47;;
10116;SDS011;5098;48.792;9.012;2022-08-02T08:46:31;4.40;;;4.00;;
10116;SDS011;5098;48.792;9.012;2022-08-02T08:48:59;4.30;;;3.90;;
10116;SDS011;5098;48.792;9.012;2022-08-02T08:51:27;6.33;;;4.40;;
10116;SDS011;5098;48.792;9.012;2022-08-02T08:53:55;5.30;;;4.80;;
10116;SDS011;5098;48.792;9.012;2022-08-02T08:56:23;4.30;;;4.00;;
10116;SDS011;5098;48.792;9.012;2022-08-02T08:58:54;4.87;;;4.47;;
10116;SDS011;5098;48.792;9.012;2022-08-02T09:01:20;4.07;;;3.77;;
10116;SDS011;5098;48.792;9.012;2022-08-02T09:03:46;4.70;;;4.30;;
10116;SDS011;5098;48.792;9.012;2022-08-02T09:06:12;7.23;;;4.40;;
10116;SDS011;5098;48.792;9.012;2022-08-02T09:08:38;5.23;;;4.80;;
10116;SDS011;5098;48.792;9.012;2022-08-02T09:11:11;4.43;;;4.03;;
10116;SDS011;5098;48.792;9.012;2022-08-02T09:13:37;6.20;;;5.03;;
10116;SDS011;5098;48.792;9.012;2022-08-02T09:16:13;5.13;;;4.67;;
10116;SDS011;5098;48.792;9.012;2022-08-02T09:18:42;4.83;;;4.43;;
10116;SDS011;5098;48.792;9.012;2022-08-02T09:21:09;5.70;;;4.63;;
10116;SDS011;5098;48.792;9.012;2022-08-02T09:23:40;5.10;;;3.90;;
10116;SDS011;5098;48.792;9.012;2022-08-02T09:26:07;4.37;;;4.00;;
10116;SDS011;5098;48.792;9.012;2022-08-02T09:28:34;5.33;;;4.50;;
10116;SDS011;5098;48.792;9.012;2022-08-02T09:31:07;4.43;;;4.13;;
10116;SDS011;5098;48.792;9.012;2022-08-02T09:33:33;3.97;;;3.67;;
10116;SDS011;5098;48.792;9.012;2022-08-02T09:38:26;4.27;;;3.87;;
10116;SDS011;5098;48.792;9.012;2022-08-02T09:40:53;4.50;;;3.80;;
10116;SDS011;5098;48.792;9.012;2022-08-02T09:43:19;4.47;;;4.07;;
10116;SDS011;5098;48.792;9.012;2022-08-02T09:45:45;6.00;;;4.60;;
10116;SDS011;5098;48.792;9.012;2022-08-02T09:48:11;6.23;;;4.67;;
10116;SDS011;5098;48.792;9.012;2022-08-02T09:50:38;4.50;;;4.10;;
10116;SDS011;5098;48.792;9.012;2022-08-02T09:53:05;5.33;;;4.37;;
10116;SDS011;5098;48.792;9.012;2022-08-02T09:55:31;5.20;;;3.93;;
10116;SDS011;5098;48.792;9.012;2022-08-02T09:57:57;4.87;;;3.73;;
10116;SDS011;5098;48.792;9.012;2022-08-02T10:00:23;4.43;;;4.03;;
10116;SDS011;5098;48.792;9.012;2022-08-02T10:03:05;5.03;;;4.53;;
10116;SDS011;5098;48.792;9.012;2022-08-02T10:05:44;5.20;;;4.80;;
10116;SDS011;5098;48.792;9.012;2022-08-02T10:08:11;4.87;;;4.37;;
10116;SDS011;5098;48.792;9.012;2022-08-02T10:10:38;5.90;;;5.43;;
10116;SDS011;5098;48.792;9.012;2022-08-02T10:13:04;4.50;;;4.10;;
10116;SDS011;5098;48.792;9.012;2022-08-02T10:15:31;4.10;;;3.77;;
10116;SDS011;5098;48.792;9.012;2022-08-02T10:17:57;5.07;;;4.60;;
10116;SDS011;5098;48.792;9.012;2022-08-02T10:20:23;6.17;;;5.30;;
10116;SDS011;5098;48.792;9.012;2022-08-02T10:22:49;5.37;;;4.87;;
10116;SDS011;5098;48.792;9.012;2022-08-02T10:25:16;4.80;;;4.33;;
10116;SDS011;5098;48.792;9.012;2022-08-02T10:27:42;4.77;;;4.30;;
10116;SDS011;5098;48.792;9.012;2022-08-02T10:30:10;6.53;;;4.43;;
10116;SDS011;5098;48.792;9.012;2022-08-02T10:32:37;6.23;;;4.07;;
10116;SDS011;5098;48.792;9.012;2022-08-02T10:35:22;4.30;;;3.90;;
10116;SDS011;5098;48.792;9.012;2022-08-02T10:37:50;4.50;;;4.07;;
10116;SDS011;5098;48.792;9.012;2022-08-02T10:40:17;4.87;;;3.80;;
10116;SDS011;5098;48.792;9.012;2022-08-02T10:42:53;6.10;;;4.00;;
10116;SDS011;5098;48.792;9.012;2022-08-02T10:45:20;4.33;;;4.00;;
10116;SDS011;5098;48.792;9.012;2022-08-02T10:48:03;4.00;;;3.60;;
10116;SDS011;5098;48.792;9.012;2022-08-02T10:53:29;4.83;;;4.43;;
10116;SDS011;5098;48.792;9.012;2022-08-02T10:55:57;4.43;;;3.40;;
10116;SDS011;5098;48.792;9.012;2022-08-02T10:58:24;4.50;;;3.87;;
10116;SDS011;5098;48.792;9.012;2022-08-02T11:00:52;4.00;;;3.70;;
10116;SDS011;5098;48.792;9.012;2022-08-02T11:06:00;6.10;;;4.47;;
10116;SDS011;5098;48.792;9.012;2022-08-02T11:08:27;4.23;;;3.83;;
10116;SDS011;5098;48.792;9.012;2022-08-02T11:14:20;3.83;;;3.37;;
10116;SDS011;5098;48.792;9.012;2022-08-02T11:16:21;3.70;;;3.40;;
10116;SDS011;5098;48.792;9.012;2022-08-02T11:21:29;3.77;;;3.47;;
10116;SDS011;5098;48.792;9.012;2022-08-02T11:24:22;4.70;;;3.60;;
10116;SDS011;5098;48.792;9.012;2022-08-02T11:26:42;3.53;;;3.23;;
10116;SDS011;5098;48.792;9.012;2022-08-02T11:29:09;5.63;;;3.80;;
10116;SDS011;5098;48.792;9.012;2022-08-02T11:31:39;4.00;;;3.70;;
10116;SDS011;5098;48.792;9.012;2022-08-02T11:34:05;3.67;;;3.37;;
10116;SDS011;5098;48.792;9.012;2022-08-02T11:36:31;3.63;;;3.33;;
10116;SDS011;5098;48.792;9.012;2022-08-02T11:39:07;3.83;;;3.53;;
10116;SDS011;5098;48.792;9.012;2022-08-02T11:41:34;3.93;;;3.47;;
10116;SDS011;5098;48.792;9.012;2022-08-02T11:44:00;4.10;;;3.70;;
10116;SDS011;5098;48.792;9.012;2022-08-02T11:46:26;4.03;;;3.70;;
10116;SDS011;5098;48.792;9.012;2022-08-02T11:48:52;4.37;;;3.37;;
10116;SDS011;5098;48.792;9.012;2022-08-02T11:51:18;7.47;;;3.07;;
10116;SDS011;5098;48.792;9.012;2022-08-02T11:53:51;4.83;;;3.47;;
10116;SDS011;5098;48.792;9.012;2022-08-02T11:56:21;4.20;;;3.87;;
10116;SDS011;5098;48.792;9.012;2022-08-02T11:59:07;5.97;;;3.27;;
10116;SDS011;5098;48.792;9.012;2022-08-02T12:01:34;3.60;;;3.30;;
10116;SDS011;5098;48.792;9.012;2022-08-02T12:04:01;4.10;;;3.30;;
10116;SDS011;5098;48.792;9.012;2022-08-02T12:06:27;3.37;;;3.03;;
10116;SDS011;5098;48.792;9.012;2022-08-02T12:09:03;3.60;;;3.30;;
10116;SDS011;5098;48.792;9.012;2022-08-02T12:11:30;3.60;;;3.30;;
10116;SDS011;5098;48.792;9.012;2022-08-02T12:13:56;5.17;;;3.00;;
10116;SDS011;5098;48.792;9.012;2022-08-02T12:16:23;3.50;;;3.20;;
10116;SDS011;5098;48.792;9.012;2022-08-02T12:19:07;4.03;;;3.73;;
10116;SDS011;5098;48.792;9.012;2022-08-02T12:21:43;3.97;;;3.27;;
10116;SDS011;5098;48.792;9.012;2022-08-02T12:24:09;3.70;;;3.40;;
10116;SDS011;5098;48.792;9.012;2022-08-02T12:26:42;4.07;;;3.60;;
10116;SDS011;5098;48.792;9.012;2022-08-02T12:29:08;3.40;;;3.10;;
10116;SDS011;5098;48.792;9.012;2022-08-02T12:31:42;3.93;;;3.53;;
10116;SDS011;5098;48.792;9.012;2022-08-02T12:34:15;3.90;;;3.50;;
10116;SDS011;5098;48.792;9.012;2022-08-02T12:36:43;4.10;;;3.33;;
10116;SDS011;5098;48.792;9.012;2022-08-02T12:39:10;5.60;;;3.00;;
10116;SDS011;5098;48.792;9.012;2022-08-02T12:41:38;3.87;;;3.57;;
10116;SDS011;5098;48.792;9.012;2022-08-02T12:44:12;3.83;;;3.27;;
10116;SDS011;5098;48.792;9.012;2022-08-02T12:46:39;4.00;;;3.60;;
10116;SDS011;5098;48.792;9.012;2022-08-02T12:49:26;5.07;;;2.97;;
10116;SDS011;5098;48.792;9.012;2022-08-02T12:51:51;5.20;;;3.70;;
10116;SDS011;5098;48.792;9.012;2022-08-02T12:54:22;3.90;;;3.30;;
10116;SDS011;5098;48.792;9.012;2022-08-02T12:56:49;3.67;;;3.37;;
10116;SDS011;5098;48.792;9.012;2022-08-02T12:59:16;4.17;;;3.57;;
10116;SDS011;5098;48.792;9.012;2022-08-02T13:01:42;3.90;;;2.90;;
10116;SDS011;5098;48.792;9.012;2022-08-02T13:04:09;4.00;;;3.20;;
10116;SDS011;5098;48.792;9.012;2022-08-02T13:06:35;5.27;;;3.03;;
10116;SDS011;5098;48.792;9.012;2022-08-02T13:09:04;4.10;;;3.17;;
10116;SDS011;5098;48.792;9.012;2022-08-02T13:11:36;2.93;;;2.70;;
10116;SDS011;5098;48.792;9.012;2022-08-02T13:14:02;3.63;;;3.33;;
10116;SDS011;5098;48.792;9.012;2022-08-02T13:16:28;3.50;;;3.07;;
10116;SDS011;5098;48.792;9.012;2022-08-02T13:18:57;5.40;;;3.57;;
10116;SDS011;5098;48.792;9.012;2022-08-02T13:21:24;5.40;;;3.00;;
10116;SDS011;5098;48.792;9.012;2022-08-02T13:23:50;5.80;;;3.40;;
10116;SDS011;5098;48.792;9.012;2022-08-02T13:26:16;3.00;;;2.80;;
10116;SDS011;5098;48.792;9.012;2022-08-02T13:28:42;4.53;;;2.77;;
10116;SDS011;5098;48.792;9.012;2022-08-02T13:31:09;3.77;;;3.13;;
10116;SDS011;5098;48.792;9.012;2022-08-02T13:33:35;3.80;;;3.40;;
10116;SDS011;5098;48.792;9.012;2022-08-02T13:36:01;5.27;;;3.30;;
10116;SDS011;5098;48.792;9.012;2022-08-02T13:38:27;5.80;;;3.27;;
10116;SDS011;5098;48.792;9.012;2022-08-02T13:40:53;3.70;;;3.40;;
10116;SDS011;5098;48.792;9.012;2022-08-02T13:43:35;2.90;;;2.70;;
10116;SDS011;5098;48.792;9.012;2022-08-02T13:46:02;4.40;;;3.20;;
10116;SDS011;5098;48.792;9.012;2022-08-02T13:48:29;5.27;;;3.27;;
10116;SDS011;5098;48.792;9.012;2022-08-02T13:50:55;2.80;;;2.50;;
10116;SDS011;5098;48.792;9.012;2022-08-02T13:53:21;2.93;;;2.63;;
10116;SDS011;5098;48.792;9.012;2022-08-02T13:55:47;3.40;;;2.70;;
10116;SDS011;5098;48.792;9.012;2022-08-02T13:58:13;3.70;;;3.00;;
10116;SDS011;5098;48.792;9.012;2022-08-02T14:00:39;3.50;;;3.20;;
10116;SDS011;5098;48.792;9.012;2022-08-02T14:03:05;5.70;;;3.23;;
10116;SDS011;5098;48.792;9.012;2022-08-02T14:05:33;4.00;;;3.10;;
10116;SDS011;5098;48.792;9.012;2022-08-02T14:08:01;6.60;;;3.40;;
10116;SDS011;5098;48.792;9.012;2022-08-02T14:10:27;4.47;;;3.23;;
10116;SDS011;5098;48.792;9.012;2022-08-02T14:12:53;3.77;;;3.23;;
10116;SDS011;5098;48.792;9.012;2022-08-02T14:15:19;3.90;;;3.60;;
10116;SDS011;5098;48.792;9.012;2022-08-02T14:17:46;3.03;;;2.80;;
10116;SDS011;5098;48.792;9.012;2022-08-02T14:20:12;4.10;;;3.33;;
10116;SDS011;5098;48.792;9.012;2022-08-02T14:22:38;3.80;;;3.00;;
10116;SDS011;5098;48.792;9.012;2022-08-02T14:25:04;3.50;;;3.20;;
10116;SDS011;5098;48.792;9.012;2022-08-02T14:27:31;3.60;;;3.30;;
10116;SDS011;5098;48.792;9.012;2022-08-02T14:29:57;4.70;;;3.30;;
10116;SDS011;5098;48.792;9.012;2022-08-02T14:32:23;4.10;;;3.00;;
10116;SDS011;5098;48.792;9.012;2022-08-02T14:34:50;3.10;;;2.80;;
10116;SDS011;5098;48.792;9.012;2022-08-02T14:37:16;3.33;;;3.03;;
10116;SDS011;5098;48.792;9.012;2022-08-02T14:39:42;3.30;;;3.10;;
10116;SDS011;5098;48.792;9.012;2022-08-02T14:42:08;3.67;;;3.17;;
10116;SDS011;5098;48.792;9.012;2022-08-02T14:44:34;3.80;;;2.97;;
10116;SDS011;5098;48.792;9.012;2022-08-02T14:47:00;4.30;;;2.90;;
10116;SDS011;5098;48.792;9.012;2022-08-02T14:49:26;5.20;;;2.83;;
10116;SDS011;5098;48.792;9.012;2022-08-02T14:51:53;7.03;;;2.83;;
10116;SDS011;5098;48.792;9.012;2022-08-02T14:54:19;4.23;;;3.30;;
10116;SDS011;5098;48.792;9.012;2022-08-02T14:56:45;3.17;;;2.87;;
10116;SDS011;5098;48.792;9.012;2022-08-02T14:59:11;3.23;;;2.90;;
10116;SDS011;5098;48.792;9.012;2022-08-02T15:01:37;10.70;;;9.60;;
10116;SDS011;5098;48.792;9.012;2022-08-02T15:04:03;3.60;;;3.00;;
10116;SDS011;5098;48.792;9.012;2022-08-02T15:06:29;3.30;;;3.07;;
10116;SDS011;5098;48.792;9.012;2022-08-02T15:08:58;6.00;;;3.23;;
10116;SDS011;5098;48.792;9.012;2022-08-02T15:11:25;3.00;;;2.70;;
10116;SDS011;5098;48.792;9.012;2022-08-02T15:13:51;5.03;;;2.73;;
10116;SDS011;5098;48.792;9.012;2022-08-02T15:16:17;3.40;;;3.00;;
10116;SDS011;5098;48.792;9.012;2022-08-02T15:18:43;3.70;;;3.40;;
10116;SDS011;5098;48.792;9.012;2022-08-02T15:21:09;3.67;;;2.90;;
10116;SDS011;5098;48.792;9.012;2022-08-02T15:23:36;3.43;;;3.10;;
10116;SDS011;5098;48.792;9.012;2022-08-02T15:26:02;4.03;;;3.00;;
10116;SDS011;5098;48.792;9.012;2022-08-02T15:28:28;5.53;;;2.90;;
10116;SDS011;5098;48.792;9.012;2022-08-02T15:30:55;2.80;;;2.50;;
10116;SDS011;5098;48.792;9.012;2022-08-02T15:33:22;6.07;;;2.90;;
10116;SDS011;5098;48.792;9.012;2022-08-02T15:35:48;4.50;;;3.60;;